sensor_id;sensor_type;location;lat;lon;timestamp;temperature;humidity
70246;SHT30;57637;49.272;8.590;2023-02-02T00:01:26;6.84;82.83
70246;SHT30;57637;49.272;8.590;2023-02-02T00:03:52;6.82;82.87
70246;SHT30;57637;49.272;8.590;2023-02-02T00:06:18;6.82;82.86
70246;SHT30;57637;49.272;8.590;2023-02-02T00:08:44;6.78;82.97
70246;SHT30;57637;49.272;8.590;2023-02-02T00:11:10;6.78;83.02
70246;SHT30;57637;49.272;8.590;2023-02-02T00:13:36;6.77;83.16
70246;SHT30;57637;49.272;8.590;2023-02-02T00:18:55;6.78;83.24
70246;SHT30;57637;49.272;8.590;2023-02-02T00:21:22;6.78;83.29
70246;SHT30;57637;49.272;8.590;2023-02-02T00:23:48;6.78;83.27
70246;SHT30;57637;49.272;8.590;2023-02-02T00:26:13;6.81;83.61
70246;SHT30;57637;49.272;8.590;2023-02-02T00:28:39;6.79;83.43
70246;SHT30;57637;49.272;8.590;2023-02-02T00:31:04;6.78;83.57
70246;SHT30;57637;49.272;8.590;2023-02-02T00:33:30;6.77;83.61
70246;SHT30;57637;49.272;8.590;2023-02-02T00:35:55;6.72;83.76
70246;SHT30;57637;49.272;8.590;2023-02-02T00:38:20;6.75;83.89
70246;SHT30;57637;49.272;8.590;2023-02-02T00:40:46;6.77;84.05
70246;SHT30;57637;49.272;8.590;2023-02-02T00:43:11;6.74;84.19
70246;SHT30;57637;49.272;8.590;2023-02-02T00:45:37;6.75;84.44
70246;SHT30;57637;49.272;8.590;2023-02-02T00:48:03;6.72;84.59
70246;SHT30;57637;49.272;8.590;2023-02-02T00:50:28;6.69;84.59
70246;SHT30;57637;49.272;8.590;2023-02-02T00:52:54;6.69;84.53
70246;SHT30;57637;49.272;8.590;2023-02-02T00:55:20;6.69;84.69
70246;SHT30;57637;49.272;8.590;2023-02-02T00:57:46;6.68;84.60
70246;SHT30;57637;49.272;8.590;2023-02-02T01:00:15;6.71;84.69
70246;SHT30;57637;49.272;8.590;2023-02-02T01:02:42;6.68;84.69
70246;SHT30;57637;49.272;8.590;2023-02-02T01:05:08;6.71;84.76
70246;SHT30;57637;49.272;8.590;2023-02-02T01:07:34;6.71;84.70
70246;SHT30;57637;49.272;8.590;2023-02-02T01:10:00;6.71;84.77
70246;SHT30;57637;49.272;8.590;2023-02-02T01:12:25;6.69;84.73
70246;SHT30;57637;49.272;8.590;2023-02-02T01:14:50;6.71;84.75
70246;SHT30;57637;49.272;8.590;2023-02-02T01:17:16;6.71;84.73
70246;SHT30;57637;49.272;8.590;2023-02-02T01:19:41;6.75;84.63
70246;SHT30;57637;49.272;8.590;2023-02-02T01:22:07;6.75;84.67
70246;SHT30;57637;49.272;8.590;2023-02-02T01:24:33;6.74;84.59
70246;SHT30;57637;49.272;8.590;2023-02-02T01:26:58;6.75;84.53
70246;SHT30;57637;49.272;8.590;2023-02-02T01:29:24;6.74;84.54
70246;SHT30;57637;49.272;8.590;2023-02-02T01:31:49;6.77;84.52
70246;SHT30;57637;49.272;8.590;2023-02-02T01:34:15;6.78;84.42
70246;SHT30;57637;49.272;8.590;2023-02-02T01:36:40;6.79;84.41
70246;SHT30;57637;49.272;8.590;2023-02-02T01:39:06;6.79;84.42
70246;SHT30;57637;49.272;8.590;2023-02-02T01:41:31;6.84;84.49
70246;SHT30;57637;49.272;8.590;2023-02-02T01:44:00;6.81;84.80
70246;SHT30;57637;49.272;8.590;2023-02-02T01:46:29;6.81;85.51
70246;SHT30;57637;49.272;8.590;2023-02-02T01:49:12;6.78;86.16
70246;SHT30;57637;49.272;8.590;2023-02-02T01:51:41;6.68;86.69
70246;SHT30;57637;49.272;8.590;2023-02-02T01:54:15;6.65;86.87
70246;SHT30;57637;49.272;8.590;2023-02-02T01:56:46;6.63;87.06
70246;SHT30;57637;49.272;8.590;2023-02-02T01:59:19;6.63;87.09
70246;SHT30;57637;49.272;8.590;2023-02-02T02:01:46;6.63;87.06
70246;SHT30;57637;49.272;8.590;2023-02-02T02:04:13;6.58;87.05
70246;SHT30;57637;49.272;8.590;2023-02-02T02:06:38;6.59;87.00
70246;SHT30;57637;49.272;8.590;2023-02-02T02:09:05;6.63;86.80
70246;SHT30;57637;49.272;8.590;2023-02-02T02:11:32;6.59;86.71
70246;SHT30;57637;49.272;8.590;2023-02-02T02:13:59;6.63;86.66
70246;SHT30;57637;49.272;8.590;2023-02-02T02:16:52;6.63;86.68
70246;SHT30;57637;49.272;8.590;2023-02-02T02:19:54;6.65;86.41
70246;SHT30;57637;49.272;8.590;2023-02-02T02:28:36;6.72;85.95
70246;SHT30;57637;49.272;8.590;2023-02-02T02:31:14;6.74;85.85
70246;SHT30;57637;49.272;8.590;2023-02-02T02:33:55;6.77;85.89
70246;SHT30;57637;49.272;8.590;2023-02-02T02:39:29;6.75;85.83
70246;SHT30;57637;49.272;8.590;2023-02-02T02:42:01;6.75;85.80
70246;SHT30;57637;49.272;8.590;2023-02-02T02:44:40;6.74;85.90
70246;SHT30;57637;49.272;8.590;2023-02-02T02:47:05;6.74;86.00
70246;SHT30;57637;49.272;8.590;2023-02-02T02:49:32;6.75;85.98
70246;SHT30;57637;49.272;8.590;2023-02-02T02:51:57;6.74;86.01
70246;SHT30;57637;49.272;8.590;2023-02-02T02:54:30;6.75;85.94
70246;SHT30;57637;49.272;8.590;2023-02-02T03:00:08;6.78;85.66
70246;SHT30;57637;49.272;8.590;2023-02-02T03:05:40;6.79;85.81
70246;SHT30;57637;49.272;8.590;2023-02-02T03:08:29;6.84;85.57
70246;SHT30;57637;49.272;8.590;2023-02-02T03:11:04;6.84;85.46
70246;SHT30;57637;49.272;8.590;2023-02-02T03:13:33;6.82;85.59
70246;SHT30;57637;49.272;8.590;2023-02-02T03:15:59;6.82;85.50
70246;SHT30;57637;49.272;8.590;2023-02-02T03:18:26;6.78;85.53
70246;SHT30;57637;49.272;8.590;2023-02-02T03:20:53;6.82;85.62
70246;SHT30;57637;49.272;8.590;2023-02-02T03:23:19;6.84;85.57
70246;SHT30;57637;49.272;8.590;2023-02-02T03:25:44;6.85;85.51
70246;SHT30;57637;49.272;8.590;2023-02-02T03:28:10;6.84;85.56
70246;SHT30;57637;49.272;8.590;2023-02-02T03:30:37;6.82;85.59
70246;SHT30;57637;49.272;8.590;2023-02-02T03:33:05;6.82;85.59
70246;SHT30;57637;49.272;8.590;2023-02-02T03:35:31;6.84;85.57
70246;SHT30;57637;49.272;8.590;2023-02-02T03:37:57;6.81;85.71
70246;SHT30;57637;49.272;8.590;2023-02-02T03:40:22;6.81;85.65
70246;SHT30;57637;49.272;8.590;2023-02-02T03:42:48;6.82;85.65
70246;SHT30;57637;49.272;8.590;2023-02-02T03:45:13;6.82;85.60
70246;SHT30;57637;49.272;8.590;2023-02-02T03:47:39;6.85;85.57
70246;SHT30;57637;49.272;8.590;2023-02-02T03:50:04;6.84;85.61
70246;SHT30;57637;49.272;8.590;2023-02-02T03:52:32;6.81;85.56
70246;SHT30;57637;49.272;8.590;2023-02-02T03:54:58;6.84;85.67
70246;SHT30;57637;49.272;8.590;2023-02-02T03:57:23;6.84;85.73
70246;SHT30;57637;49.272;8.590;2023-02-02T03:59:49;6.84;85.62
70246;SHT30;57637;49.272;8.590;2023-02-02T04:02:14;6.84;85.66
70246;SHT30;57637;49.272;8.590;2023-02-02T04:04:40;6.81;85.73
70246;SHT30;57637;49.272;8.590;2023-02-02T04:07:05;6.82;85.78
70246;SHT30;57637;49.272;8.590;2023-02-02T04:09:30;6.82;85.82
70246;SHT30;57637;49.272;8.590;2023-02-02T04:11:56;6.82;85.72
70246;SHT30;57637;49.272;8.590;2023-02-02T04:14:21;6.82;85.65
70246;SHT30;57637;49.272;8.590;2023-02-02T04:16:46;6.82;85.67
70246;SHT30;57637;49.272;8.590;2023-02-02T04:19:12;6.85;85.60
70246;SHT30;57637;49.272;8.590;2023-02-02T04:21:38;6.85;85.62
70246;SHT30;57637;49.272;8.590;2023-02-02T04:24:05;6.85;85.51
70246;SHT30;57637;49.272;8.590;2023-02-02T04:26:31;6.87;85.53
70246;SHT30;57637;49.272;8.590;2023-02-02T04:28:56;6.88;85.49
70246;SHT30;57637;49.272;8.590;2023-02-02T04:31:21;6.88;85.44
70246;SHT30;57637;49.272;8.590;2023-02-02T04:33:47;6.87;85.53
70246;SHT30;57637;49.272;8.590;2023-02-02T04:36:12;6.88;85.57
70246;SHT30;57637;49.272;8.590;2023-02-02T04:38:38;6.87;85.64
70246;SHT30;57637;49.272;8.590;2023-02-02T04:41:07;6.87;85.54
70246;SHT30;57637;49.272;8.590;2023-02-02T04:43:34;6.88;85.64
70246;SHT30;57637;49.272;8.590;2023-02-02T04:46:00;6.87;85.59
70246;SHT30;57637;49.272;8.590;2023-02-02T04:48:26;6.87;85.62
70246;SHT30;57637;49.272;8.590;2023-02-02T04:50:56;6.85;85.64
70246;SHT30;57637;49.272;8.590;2023-02-02T04:53:23;6.88;85.72
70246;SHT30;57637;49.272;8.590;2023-02-02T04:55:49;6.84;85.75
70246;SHT30;57637;49.272;8.590;2023-02-02T04:58:14;6.85;85.74
70246;SHT30;57637;49.272;8.590;2023-02-02T05:00:39;6.81;85.84
70246;SHT30;57637;49.272;8.590;2023-02-02T05:03:05;6.81;85.93
70246;SHT30;57637;49.272;8.590;2023-02-02T05:05:30;6.82;85.97
70246;SHT30;57637;49.272;8.590;2023-02-02T05:07:55;6.82;86.02
70246;SHT30;57637;49.272;8.590;2023-02-02T05:10:21;6.82;86.07
70246;SHT30;57637;49.272;8.590;2023-02-02T05:12:46;6.95;86.20
70246;SHT30;57637;49.272;8.590;2023-02-02T05:15:11;6.98;86.17
70246;SHT30;57637;49.272;8.590;2023-02-02T05:17:37;6.98;85.91
70246;SHT30;57637;49.272;8.590;2023-02-02T05:20:02;6.98;85.86
70246;SHT30;57637;49.272;8.590;2023-02-02T05:22:28;6.96;85.70
70246;SHT30;57637;49.272;8.590;2023-02-02T05:24:53;7.01;85.82
70246;SHT30;57637;49.272;8.590;2023-02-02T05:27:18;6.96;85.60
70246;SHT30;57637;49.272;8.590;2023-02-02T05:29:45;6.98;85.67
70246;SHT30;57637;49.272;8.590;2023-02-02T05:32:11;6.93;85.60
70246;SHT30;57637;49.272;8.590;2023-02-02T05:34:37;6.96;85.64
70246;SHT30;57637;49.272;8.590;2023-02-02T05:37:02;6.99;85.86
70246;SHT30;57637;49.272;8.590;2023-02-02T05:39:27;6.98;85.63
70246;SHT30;57637;49.272;8.590;2023-02-02T05:41:53;6.96;85.59
70246;SHT30;57637;49.272;8.590;2023-02-02T05:44:18;6.98;85.51
70246;SHT30;57637;49.272;8.590;2023-02-02T05:46:43;6.96;85.65
70246;SHT30;57637;49.272;8.590;2023-02-02T05:49:13;6.98;85.67
70246;SHT30;57637;49.272;8.590;2023-02-02T05:51:56;7.02;85.68
70246;SHT30;57637;49.272;8.590;2023-02-02T05:54:23;6.98;85.49
70246;SHT30;57637;49.272;8.590;2023-02-02T05:56:49;7.03;85.66
70246;SHT30;57637;49.272;8.590;2023-02-02T05:59:17;7.06;85.76
70246;SHT30;57637;49.272;8.590;2023-02-02T06:01:46;7.10;85.31
70246;SHT30;57637;49.272;8.590;2023-02-02T06:04:12;7.08;85.51
70246;SHT30;57637;49.272;8.590;2023-02-02T06:06:38;7.06;85.51
70246;SHT30;57637;49.272;8.590;2023-02-02T06:09:04;7.05;85.54
70246;SHT30;57637;49.272;8.590;2023-02-02T06:11:30;6.99;85.59
70246;SHT30;57637;49.272;8.590;2023-02-02T06:13:55;6.99;85.67
70246;SHT30;57637;49.272;8.590;2023-02-02T06:16:22;6.95;85.63
70246;SHT30;57637;49.272;8.590;2023-02-02T06:18:48;6.92;85.68
70246;SHT30;57637;49.272;8.590;2023-02-02T06:21:14;6.91;85.68
70246;SHT30;57637;49.272;8.590;2023-02-02T06:23:39;6.91;85.74
70246;SHT30;57637;49.272;8.590;2023-02-02T06:26:10;6.91;85.75
70246;SHT30;57637;49.272;8.590;2023-02-02T06:28:36;6.89;85.86
70246;SHT30;57637;49.272;8.590;2023-02-02T06:31:03;6.89;85.97
70246;SHT30;57637;49.272;8.590;2023-02-02T06:33:29;6.91;85.95
70246;SHT30;57637;49.272;8.590;2023-02-02T06:35:57;6.88;86.00
70246;SHT30;57637;49.272;8.590;2023-02-02T06:38:25;6.88;86.04
70246;SHT30;57637;49.272;8.590;2023-02-02T06:40:50;6.89;86.06
70246;SHT30;57637;49.272;8.590;2023-02-02T06:43:15;6.88;86.15
70246;SHT30;57637;49.272;8.590;2023-02-02T06:45:41;6.87;86.10
70246;SHT30;57637;49.272;8.590;2023-02-02T06:48:06;6.85;86.14
70246;SHT30;57637;49.272;8.590;2023-02-02T06:50:35;6.82;86.25
70246;SHT30;57637;49.272;8.590;2023-02-02T06:53:02;6.85;86.29
70246;SHT30;57637;49.272;8.590;2023-02-02T06:55:27;6.84;86.35
70246;SHT30;57637;49.272;8.590;2023-02-02T06:57:59;6.82;86.28
70246;SHT30;57637;49.272;8.590;2023-02-02T07:00:25;6.84;86.28
70246;SHT30;57637;49.272;8.590;2023-02-02T07:02:52;6.85;86.34
70246;SHT30;57637;49.272;8.590;2023-02-02T07:05:18;6.84;86.32
70246;SHT30;57637;49.272;8.590;2023-02-02T07:07:45;6.82;86.37
70246;SHT30;57637;49.272;8.590;2023-02-02T07:10:12;6.87;86.34
70246;SHT30;57637;49.272;8.590;2023-02-02T07:12:38;6.87;86.24
70246;SHT30;57637;49.272;8.590;2023-02-02T07:15:04;6.88;86.30
70246;SHT30;57637;49.272;8.590;2023-02-02T07:17:29;6.88;86.34
70246;SHT30;57637;49.272;8.590;2023-02-02T07:19:55;6.89;86.30
70246;SHT30;57637;49.272;8.590;2023-02-02T07:22:20;6.89;86.29
70246;SHT30;57637;49.272;8.590;2023-02-02T07:24:46;6.93;86.25
70246;SHT30;57637;49.272;8.590;2023-02-02T07:27:11;6.92;86.25
70246;SHT30;57637;49.272;8.590;2023-02-02T07:29:37;6.91;86.22
70246;SHT30;57637;49.272;8.590;2023-02-02T07:32:03;6.92;86.29
70246;SHT30;57637;49.272;8.590;2023-02-02T07:34:28;6.91;86.36
70246;SHT30;57637;49.272;8.590;2023-02-02T07:36:53;6.98;86.28
70246;SHT30;57637;49.272;8.590;2023-02-02T07:39:19;6.98;86.27
70246;SHT30;57637;49.272;8.590;2023-02-02T07:41:44;6.98;86.24
70246;SHT30;57637;49.272;8.590;2023-02-02T07:44:11;6.99;86.28
70246;SHT30;57637;49.272;8.590;2023-02-02T07:46:41;7.01;86.31
70246;SHT30;57637;49.272;8.590;2023-02-02T07:49:15;6.98;86.30
70246;SHT30;57637;49.272;8.590;2023-02-02T07:51:41;6.99;86.29
70246;SHT30;57637;49.272;8.590;2023-02-02T07:54:08;7.01;86.34
70246;SHT30;57637;49.272;8.590;2023-02-02T07:56:33;7.01;86.25
70246;SHT30;57637;49.272;8.590;2023-02-02T07:58:58;7.05;86.19
70246;SHT30;57637;49.272;8.590;2023-02-02T08:01:24;7.08;86.30
70246;SHT30;57637;49.272;8.590;2023-02-02T08:03:51;7.06;86.08
70246;SHT30;57637;49.272;8.590;2023-02-02T08:06:18;7.08;86.10
70246;SHT30;57637;49.272;8.590;2023-02-02T08:08:44;7.06;86.09
70246;SHT30;57637;49.272;8.590;2023-02-02T08:11:11;7.10;85.97
70246;SHT30;57637;49.272;8.590;2023-02-02T08:13:37;7.19;85.96
70246;SHT30;57637;49.272;8.590;2023-02-02T08:16:04;7.27;85.73
70246;SHT30;57637;49.272;8.590;2023-02-02T08:18:30;7.33;85.41
70246;SHT30;57637;49.272;8.590;2023-02-02T08:21:02;7.37;85.21
70246;SHT30;57637;49.272;8.590;2023-02-02T08:23:29;7.40;85.11
70246;SHT30;57637;49.272;8.590;2023-02-02T08:26:04;7.42;84.87
70246;SHT30;57637;49.272;8.590;2023-02-02T08:28:38;7.43;84.86
70246;SHT30;57637;49.272;8.590;2023-02-02T08:31:18;7.39;84.83
70246;SHT30;57637;49.272;8.590;2023-02-02T08:33:54;7.47;84.89
70246;SHT30;57637;49.272;8.590;2023-02-02T08:36:22;7.49;84.77
70246;SHT30;57637;49.272;8.590;2023-02-02T08:38:48;7.57;84.65
70246;SHT30;57637;49.272;8.590;2023-02-02T08:41:15;7.59;84.28
70246;SHT30;57637;49.272;8.590;2023-02-02T08:43:42;7.78;84.15
70246;SHT30;57637;49.272;8.590;2023-02-02T08:46:08;7.91;83.69
70246;SHT30;57637;49.272;8.590;2023-02-02T08:48:36;8.02;83.29
70246;SHT30;57637;49.272;8.590;2023-02-02T08:51:02;8.06;83.05
70246;SHT30;57637;49.272;8.590;2023-02-02T08:53:28;8.06;82.92
70246;SHT30;57637;49.272;8.590;2023-02-02T08:55:57;8.14;82.58
70246;SHT30;57637;49.272;8.590;2023-02-02T08:58:24;8.21;82.54
70246;SHT30;57637;49.272;8.590;2023-02-02T09:00:53;8.26;82.27
70246;SHT30;57637;49.272;8.590;2023-02-02T09:03:18;8.31;82.38
70246;SHT30;57637;49.272;8.590;2023-02-02T09:05:44;8.25;82.27
70246;SHT30;57637;49.272;8.590;2023-02-02T09:08:09;8.20;82.17
70246;SHT30;57637;49.272;8.590;2023-02-02T09:10:35;8.26;82.48
70246;SHT30;57637;49.272;8.590;2023-02-02T09:13:02;8.34;82.14
70246;SHT30;57637;49.272;8.590;2023-02-02T09:15:28;8.31;81.85
70246;SHT30;57637;49.272;8.590;2023-02-02T09:17:54;8.26;81.95
70246;SHT30;57637;49.272;8.590;2023-02-02T09:20:19;8.29;81.91
70246;SHT30;57637;49.272;8.590;2023-02-02T09:22:46;8.21;82.12
70246;SHT30;57637;49.272;8.590;2023-02-02T09:25:11;8.14;82.15
70246;SHT30;57637;49.272;8.590;2023-02-02T09:27:37;8.11;82.20
70246;SHT30;57637;49.272;8.590;2023-02-02T09:30:05;8.05;82.20
70246;SHT30;57637;49.272;8.590;2023-02-02T09:32:31;8.06;82.28
70246;SHT30;57637;49.272;8.590;2023-02-02T09:34:56;8.14;82.24
70246;SHT30;57637;49.272;8.590;2023-02-02T09:37:21;8.15;82.03
70246;SHT30;57637;49.272;8.590;2023-02-02T09:39:47;8.16;82.00
70246;SHT30;57637;49.272;8.590;2023-02-02T09:42:21;8.14;82.09
70246;SHT30;57637;49.272;8.590;2023-02-02T09:47:23;8.20;82.23
70246;SHT30;57637;49.272;8.590;2023-02-02T09:53:22;8.22;81.66
70246;SHT30;57637;49.272;8.590;2023-02-02T09:55:53;8.25;81.30
70246;SHT30;57637;49.272;8.590;2023-02-02T09:58:38;8.39;81.20
70246;SHT30;57637;49.272;8.590;2023-02-02T10:01:13;8.46;80.59
70246;SHT30;57637;49.272;8.590;2023-02-02T10:06:38;8.59;80.27
70246;SHT30;57637;49.272;8.590;2023-02-02T10:23:27;8.99;79.26
70246;SHT30;57637;49.272;8.590;2023-02-02T10:26:00;8.89;79.27
70246;SHT30;57637;49.272;8.590;2023-02-02T10:33:56;8.65;80.06
70246;SHT30;57637;49.272;8.590;2023-02-02T10:36:55;8.56;80.23
70246;SHT30;57637;49.272;8.590;2023-02-02T10:44:36;8.39;80.76
70246;SHT30;57637;49.272;8.590;2023-02-02T10:47:47;8.36;80.80
70246;SHT30;57637;49.272;8.590;2023-02-02T10:50:17;8.31;80.67
70246;SHT30;57637;49.272;8.590;2023-02-02T10:52:53;8.29;80.71
70246;SHT30;57637;49.272;8.590;2023-02-02T10:55:30;8.26;80.56
70246;SHT30;57637;49.272;8.590;2023-02-02T11:00:41;8.31;80.60
70246;SHT30;57637;49.272;8.590;2023-02-02T11:03:16;8.29;80.38
70246;SHT30;57637;49.272;8.590;2023-02-02T11:05:44;8.29;80.74
70246;SHT30;57637;49.272;8.590;2023-02-02T11:16:31;8.26;80.36
70246;SHT30;57637;49.272;8.590;2023-02-02T11:18:58;8.29;80.42
70246;SHT30;57637;49.272;8.590;2023-02-02T11:21:30;8.29;80.26
70246;SHT30;57637;49.272;8.590;2023-02-02T11:26:23;8.38;80.16
70246;SHT30;57637;49.272;8.590;2023-02-02T11:28:49;8.35;80.23
70246;SHT30;57637;49.272;8.590;2023-02-02T11:31:34;8.36;80.22
70246;SHT30;57637;49.272;8.590;2023-02-02T11:34:08;8.36;80.03
70246;SHT30;57637;49.272;8.590;2023-02-02T11:36:33;8.39;80.18
70246;SHT30;57637;49.272;8.590;2023-02-02T11:39:15;8.41;80.13
70246;SHT30;57637;49.272;8.590;2023-02-02T11:41:44;8.46;80.12
70246;SHT30;57637;49.272;8.590;2023-02-02T11:44:15;8.46;80.03
70246;SHT30;57637;49.272;8.590;2023-02-02T11:46:48;8.42;79.81
70246;SHT30;57637;49.272;8.590;2023-02-02T11:49:15;8.46;79.71
70246;SHT30;57637;49.272;8.590;2023-02-02T11:51:43;8.50;79.61
70246;SHT30;57637;49.272;8.590;2023-02-02T11:54:25;8.56;79.65
70246;SHT30;57637;49.272;8.590;2023-02-02T11:56:53;8.55;79.56
70246;SHT30;57637;49.272;8.590;2023-02-02T11:59:26;8.56;79.37
70246;SHT30;57637;49.272;8.590;2023-02-02T12:02:09;8.60;79.36
70246;SHT30;57637;49.272;8.590;2023-02-02T12:04:34;8.63;79.07
70246;SHT30;57637;49.272;8.590;2023-02-02T12:07:00;8.65;79.01
70246;SHT30;57637;49.272;8.590;2023-02-02T12:09:25;8.66;78.94
70246;SHT30;57637;49.272;8.590;2023-02-02T12:11:59;8.66;78.93
70246;SHT30;57637;49.272;8.590;2023-02-02T12:14:38;8.65;79.28
70246;SHT30;57637;49.272;8.590;2023-02-02T12:20:27;8.63;78.89
70246;SHT30;57637;49.272;8.590;2023-02-02T12:23:14;8.70;78.57
70246;SHT30;57637;49.272;8.590;2023-02-02T12:34:40;8.91;78.04
70246;SHT30;57637;49.272;8.590;2023-02-02T12:37:34;8.99;77.49
70246;SHT30;57637;49.272;8.590;2023-02-02T12:40:20;9.03;78.24
70246;SHT30;57637;49.272;8.590;2023-02-02T12:48:16;9.03;77.43
70246;SHT30;57637;49.272;8.590;2023-02-02T12:51:14;9.13;77.44
70246;SHT30;57637;49.272;8.590;2023-02-02T13:08:03;9.62;76.24
70246;SHT30;57637;49.272;8.590;2023-02-02T13:15:50;9.68;76.02
70246;SHT30;57637;49.272;8.590;2023-02-02T13:18:40;9.61;75.93
70246;SHT30;57637;49.272;8.590;2023-02-02T13:21:13;9.57;76.20
70246;SHT30;57637;49.272;8.590;2023-02-02T13:23:41;9.54;76.27
70246;SHT30;57637;49.272;8.590;2023-02-02T13:31:14;9.58;76.28
70246;SHT30;57637;49.272;8.590;2023-02-02T13:33:45;9.59;76.08
70246;SHT30;57637;49.272;8.590;2023-02-02T13:36:19;9.69;75.92
70246;SHT30;57637;49.272;8.590;2023-02-02T13:38:54;9.62;76.33
70246;SHT30;57637;49.272;8.590;2023-02-02T13:41:22;9.61;75.83
70246;SHT30;57637;49.272;8.590;2023-02-02T13:44:00;9.67;75.85
70246;SHT30;57637;49.272;8.590;2023-02-02T13:46:59;9.69;75.82
70246;SHT30;57637;49.272;8.590;2023-02-02T13:49:30;9.77;75.83
70246;SHT30;57637;49.272;8.590;2023-02-02T13:52:02;9.72;75.73
70246;SHT30;57637;49.272;8.590;2023-02-02T13:55:26;9.77;75.71
70246;SHT30;57637;49.272;8.590;2023-02-02T14:00:45;9.68;75.68
70246;SHT30;57637;49.272;8.590;2023-02-02T14:03:30;9.58;75.87
70246;SHT30;57637;49.272;8.590;2023-02-02T14:08:44;9.51;76.13
70246;SHT30;57637;49.272;8.590;2023-02-02T14:11:27;9.54;75.72
70246;SHT30;57637;49.272;8.590;2023-02-02T14:14:12;9.51;75.65
70246;SHT30;57637;49.272;8.590;2023-02-02T14:19:59;9.45;75.90
70246;SHT30;57637;49.272;8.590;2023-02-02T14:22:45;9.37;76.13
70246;SHT30;57637;49.272;8.590;2023-02-02T14:27:54;9.30;76.55
70246;SHT30;57637;49.272;8.590;2023-02-02T14:30:25;9.26;76.69
70246;SHT30;57637;49.272;8.590;2023-02-02T14:32:53;9.20;77.19
70246;SHT30;57637;49.272;8.590;2023-02-02T14:38:25;9.14;77.70
70246;SHT30;57637;49.272;8.590;2023-02-02T14:44:12;9.00;77.81
70246;SHT30;57637;49.272;8.590;2023-02-02T14:46:38;8.96;77.85
70246;SHT30;57637;49.272;8.590;2023-02-02T14:49:11;8.91;77.80
70246;SHT30;57637;49.272;8.590;2023-02-02T14:51:47;8.89;77.93
70246;SHT30;57637;49.272;8.590;2023-02-02T14:54:26;8.84;77.95
70246;SHT30;57637;49.272;8.590;2023-02-02T14:56:59;8.84;77.99
70246;SHT30;57637;49.272;8.590;2023-02-02T15:02:02;8.81;78.60
70246;SHT30;57637;49.272;8.590;2023-02-02T15:04:37;8.91;79.06
70246;SHT30;57637;49.272;8.590;2023-02-02T15:09:46;8.77;78.06
70246;SHT30;57637;49.272;8.590;2023-02-02T15:22:42;8.69;78.03
70246;SHT30;57637;49.272;8.590;2023-02-02T15:25:27;8.69;78.33
70246;SHT30;57637;49.272;8.590;2023-02-02T15:31:19;8.63;78.39
70246;SHT30;57637;49.272;8.590;2023-02-02T15:34:26;8.60;78.36
70246;SHT30;57637;49.272;8.590;2023-02-02T15:37:03;8.63;78.40
70246;SHT30;57637;49.272;8.590;2023-02-02T15:42:00;8.59;78.72
70246;SHT30;57637;49.272;8.590;2023-02-02T15:44:47;8.59;78.65
70246;SHT30;57637;49.272;8.590;2023-02-02T15:47:21;8.55;78.73
70246;SHT30;57637;49.272;8.590;2023-02-02T15:49:54;8.53;78.53
70246;SHT30;57637;49.272;8.590;2023-02-02T15:52:25;8.56;78.53
70246;SHT30;57637;49.272;8.590;2023-02-02T15:54:58;8.57;78.95
70246;SHT30;57637;49.272;8.590;2023-02-02T16:00:20;8.63;78.45
70246;SHT30;57637;49.272;8.590;2023-02-02T16:02:49;8.63;78.38
70246;SHT30;57637;49.272;8.590;2023-02-02T16:05:38;8.63;78.74
70246;SHT30;57637;49.272;8.590;2023-02-02T16:08:12;8.63;78.63
70246;SHT30;57637;49.272;8.590;2023-02-02T16:10:41;8.65;78.45
70246;SHT30;57637;49.272;8.590;2023-02-02T16:13:14;8.59;78.70
70246;SHT30;57637;49.272;8.590;2023-02-02T16:15:56;8.56;78.84
70246;SHT30;57637;49.272;8.590;2023-02-02T16:18:26;8.50;79.06
70246;SHT30;57637;49.272;8.590;2023-02-02T16:20:52;8.49;79.21
70246;SHT30;57637;49.272;8.590;2023-02-02T16:23:27;8.48;79.36
70246;SHT30;57637;49.272;8.590;2023-02-02T16:25:55;8.45;79.43
70246;SHT30;57637;49.272;8.590;2023-02-02T16:28:23;8.41;79.51
70246;SHT30;57637;49.272;8.590;2023-02-02T16:30:49;8.41;79.46
70246;SHT30;57637;49.272;8.590;2023-02-02T16:33:35;8.41;79.69
70246;SHT30;57637;49.272;8.590;2023-02-02T16:36:14;8.39;79.57
70246;SHT30;57637;49.272;8.590;2023-02-02T16:38:45;8.38;79.60
70246;SHT30;57637;49.272;8.590;2023-02-02T16:41:23;8.34;79.52
70246;SHT30;57637;49.272;8.590;2023-02-02T16:43:53;8.35;79.60
70246;SHT30;57637;49.272;8.590;2023-02-02T16:46:38;8.34;79.51
70246;SHT30;57637;49.272;8.590;2023-02-02T16:49:12;8.29;79.60
70246;SHT30;57637;49.272;8.590;2023-02-02T16:51:41;8.29;79.58
70246;SHT30;57637;49.272;8.590;2023-02-02T16:56:39;8.32;79.78
70246;SHT30;57637;49.272;8.590;2023-02-02T17:01:58;8.35;79.32
70246;SHT30;57637;49.272;8.590;2023-02-02T17:04:28;8.36;79.42
70246;SHT30;57637;49.272;8.590;2023-02-02T17:06:56;8.32;79.49
70246;SHT30;57637;49.272;8.590;2023-02-02T17:14:26;8.24;80.04
70246;SHT30;57637;49.272;8.590;2023-02-02T17:17:00;8.21;80.27
70246;SHT30;57637;49.272;8.590;2023-02-02T17:19:28;8.18;80.70
70246;SHT30;57637;49.272;8.590;2023-02-02T17:21:54;8.16;80.91
70246;SHT30;57637;49.272;8.590;2023-02-02T17:24:20;8.14;81.15
70246;SHT30;57637;49.272;8.590;2023-02-02T17:26:46;8.11;81.39
70246;SHT30;57637;49.272;8.590;2023-02-02T17:29:13;8.08;81.42
70246;SHT30;57637;49.272;8.590;2023-02-02T17:31:47;8.05;81.53
70246;SHT30;57637;49.272;8.590;2023-02-02T17:34:13;8.05;81.51
70246;SHT30;57637;49.272;8.590;2023-02-02T17:36:39;8.01;81.47
70246;SHT30;57637;49.272;8.590;2023-02-02T17:39:04;8.02;81.56
70246;SHT30;57637;49.272;8.590;2023-02-02T17:41:30;8.02;81.76
70246;SHT30;57637;49.272;8.590;2023-02-02T17:43:56;7.98;81.99
70246;SHT30;57637;49.272;8.590;2023-02-02T17:46:21;7.95;82.09
70246;SHT30;57637;49.272;8.590;2023-02-02T17:48:46;7.95;82.22
70246;SHT30;57637;49.272;8.590;2023-02-02T17:51:15;7.91;82.33
70246;SHT30;57637;49.272;8.590;2023-02-02T17:53:41;7.88;82.41
70246;SHT30;57637;49.272;8.590;2023-02-02T17:56:08;7.85;82.48
70246;SHT30;57637;49.272;8.590;2023-02-02T17:58:33;7.84;82.57
70246;SHT30;57637;49.272;8.590;2023-02-02T18:00:58;7.85;82.57
70246;SHT30;57637;49.272;8.590;2023-02-02T18:03:28;7.85;82.61
70246;SHT30;57637;49.272;8.590;2023-02-02T18:05:59;7.81;82.82
70246;SHT30;57637;49.272;8.590;2023-02-02T18:08:27;7.78;83.11
70246;SHT30;57637;49.272;8.590;2023-02-02T18:10:53;7.77;83.20
70246;SHT30;57637;49.272;8.590;2023-02-02T18:13:20;7.74;83.49
70246;SHT30;57637;49.272;8.590;2023-02-02T18:15:47;7.69;83.65
70246;SHT30;57637;49.272;8.590;2023-02-02T18:18:14;7.66;83.78
70246;SHT30;57637;49.272;8.590;2023-02-02T18:20:43;7.64;83.76
70246;SHT30;57637;49.272;8.590;2023-02-02T18:23:09;7.66;83.89
70246;SHT30;57637;49.272;8.590;2023-02-02T18:25:36;7.60;84.05
70246;SHT30;57637;49.272;8.590;2023-02-02T18:28:02;7.60;84.04
70246;SHT30;57637;49.272;8.590;2023-02-02T18:30:27;7.57;84.10
70246;SHT30;57637;49.272;8.590;2023-02-02T18:32:53;7.54;84.08
70246;SHT30;57637;49.272;8.590;2023-02-02T18:35:18;7.56;84.13
70246;SHT30;57637;49.272;8.590;2023-02-02T18:37:44;7.53;84.11
70246;SHT30;57637;49.272;8.590;2023-02-02T18:40:09;7.50;84.18